sensor_id;sensor_type;location;lat;lon;timestamp;P1;durP1;ratioP1;P2;durP2;ratioP2
14975;SDS011;7584;60.468;25.126;2022-07-17T00:01:14;2.57;;;0.70;;
14975;SDS011;7584;60.468;25.126;2022-07-17T00:03:40;1.37;;;0.60;;
14975;SDS011;7584;60.468;25.126;2022-07-17T00:06:05;0.90;;;0.40;;
14975;SDS011;7584;60.468;25.126;2022-07-17T00:08:30;1.90;;;0.50;;
14975;SDS011;7584;60.468;25.126;2022-07-17T00:10:57;1.67;;;0.40;;
14975;SDS011;7584;60.468;25.126;2022-07-17T00:13:22;3.33;;;0.50;;
14975;SDS011;7584;60.468;25.126;2022-07-17T00:15:49;0.90;;;0.40;;
14975;SDS011;7584;60.468;25.126;2022-07-17T00:18:14;1.27;;;0.60;;
14975;SDS011;7584;60.468;25.126;2022-07-17T00:20:39;0.67;;;0.40;;
14975;SDS011;7584;60.468;25.126;2022-07-17T00:23:05;3.90;;;0.93;;
14975;SDS011;7584;60.468;25.126;2022-07-17T00:25:30;0.73;;;0.50;;
14975;SDS011;7584;60.468;25.126;2022-07-17T00:27:57;1.57;;;0.73;;
14975;SDS011;7584;60.468;25.126;2022-07-17T00:30:22;3.17;;;0.50;;
14975;SDS011;7584;60.468;25.126;2022-07-17T00:32:48;1.07;;;0.60;;
14975;SDS011;7584;60.468;25.126;2022-07-17T00:35:13;1.53;;;0.70;;
14975;SDS011;7584;60.468;25.126;2022-07-17T00:37:42;1.67;;;0.70;;
14975;SDS011;7584;60.468;25.126;2022-07-17T00:40:08;2.27;;;0.70;;
14975;SDS011;7584;60.468;25.126;2022-07-17T00:42:34;2.87;;;0.50;;
14975;SDS011;7584;60.468;25.126;2022-07-17T00:44:59;0.97;;;0.30;;
14975;SDS011;7584;60.468;25.126;2022-07-17T00:47:25;1.53;;;0.60;;
14975;SDS011;7584;60.468;25.126;2022-07-17T00:49:50;0.97;;;0.50;;
14975;SDS011;7584;60.468;25.126;2022-07-17T00:52:16;2.53;;;0.90;;
14975;SDS011;7584;60.468;25.126;2022-07-17T00:54:42;2.73;;;0.63;;
14975;SDS011;7584;60.468;25.126;2022-07-17T00:57:09;2.30;;;0.60;;
14975;SDS011;7584;60.468;25.126;2022-07-17T00:59:35;2.10;;;0.60;;
14975;SDS011;7584;60.468;25.126;2022-07-17T01:02:04;0.53;;;0.50;;
14975;SDS011;7584;60.468;25.126;2022-07-17T01:04:30;2.80;;;0.50;;
14975;SDS011;7584;60.468;25.126;2022-07-17T01:06:55;1.63;;;0.57;;
14975;SDS011;7584;60.468;25.126;2022-07-17T01:09:21;1.80;;;0.60;;
14975;SDS011;7584;60.468;25.126;2022-07-17T01:11:46;1.83;;;0.57;;
14975;SDS011;7584;60.468;25.126;2022-07-17T01:14:11;1.60;;;0.40;;
14975;SDS011;7584;60.468;25.126;2022-07-17T01:16:37;1.53;;;0.50;;
14975;SDS011;7584;60.468;25.126;2022-07-17T01:19:02;1.87;;;0.50;;
14975;SDS011;7584;60.468;25.126;2022-07-17T01:21:49;1.13;;;0.50;;
14975;SDS011;7584;60.468;25.126;2022-07-17T01:24:13;0.80;;;0.40;;
14975;SDS011;7584;60.468;25.126;2022-07-17T01:26:42;2.07;;;0.50;;
14975;SDS011;7584;60.468;25.126;2022-07-17T01:29:09;2.33;;;0.47;;
14975;SDS011;7584;60.468;25.126;2022-07-17T01:31:34;0.43;;;0.30;;
14975;SDS011;7584;60.468;25.126;2022-07-17T01:33:59;1.73;;;0.50;;
14975;SDS011;7584;60.468;25.126;2022-07-17T01:36:25;1.13;;;0.47;;
14975;SDS011;7584;60.468;25.126;2022-07-17T01:38:51;4.83;;;1.03;;
14975;SDS011;7584;60.468;25.126;2022-07-17T01:41:16;0.63;;;0.40;;
14975;SDS011;7584;60.468;25.126;2022-07-17T01:43:42;0.90;;;0.57;;
14975;SDS011;7584;60.468;25.126;2022-07-17T01:46:07;2.00;;;0.50;;
14975;SDS011;7584;60.468;25.126;2022-07-17T01:48:32;1.33;;;0.50;;
14975;SDS011;7584;60.468;25.126;2022-07-17T01:50:58;1.43;;;0.70;;
14975;SDS011;7584;60.468;25.126;2022-07-17T01:53:23;0.70;;;0.37;;
14975;SDS011;7584;60.468;25.126;2022-07-17T01:55:48;2.10;;;0.50;;
14975;SDS011;7584;60.468;25.126;2022-07-17T01:58:14;1.33;;;0.43;;
14975;SDS011;7584;60.468;25.126;2022-07-17T02:00:40;3.07;;;0.50;;
14975;SDS011;7584;60.468;25.126;2022-07-17T02:03:05;2.80;;;0.40;;
14975;SDS011;7584;60.468;25.126;2022-07-17T02:05:30;2.37;;;0.63;;
14975;SDS011;7584;60.468;25.126;2022-07-17T02:07:56;1.30;;;0.43;;
14975;SDS011;7584;60.468;25.126;2022-07-17T02:10:21;1.43;;;0.60;;
14975;SDS011;7584;60.468;25.126;2022-07-17T02:12:46;2.40;;;0.67;;
14975;SDS011;7584;60.468;25.126;2022-07-17T02:15:12;1.50;;;0.60;;
14975;SDS011;7584;60.468;25.126;2022-07-17T02:17:38;1.00;;;0.40;;
14975;SDS011;7584;60.468;25.126;2022-07-17T02:20:04;4.13;;;0.50;;
14975;SDS011;7584;60.468;25.126;2022-07-17T02:22:31;2.47;;;0.40;;
14975;SDS011;7584;60.468;25.126;2022-07-17T02:24:56;0.97;;;0.50;;
14975;SDS011;7584;60.468;25.126;2022-07-17T02:27:21;2.13;;;0.40;;
14975;SDS011;7584;60.468;25.126;2022-07-17T02:29:46;1.90;;;0.40;;
14975;SDS011;7584;60.468;25.126;2022-07-17T02:32:12;1.30;;;0.50;;
14975;SDS011;7584;60.468;25.126;2022-07-17T02:34:37;2.53;;;0.63;;
14975;SDS011;7584;60.468;25.126;2022-07-17T02:37:02;0.93;;;0.33;;
14975;SDS011;7584;60.468;25.126;2022-07-17T02:39:28;1.83;;;0.47;;
14975;SDS011;7584;60.468;25.126;2022-07-17T02:41:53;1.60;;;0.43;;
14975;SDS011;7584;60.468;25.126;2022-07-17T02:44:18;2.13;;;0.53;;
14975;SDS011;7584;60.468;25.126;2022-07-17T02:46:44;1.07;;;0.63;;
14975;SDS011;7584;60.468;25.126;2022-07-17T02:49:09;1.50;;;0.50;;
14975;SDS011;7584;60.468;25.126;2022-07-17T02:51:34;1.07;;;0.40;;
14975;SDS011;7584;60.468;25.126;2022-07-17T02:53:59;0.87;;;0.37;;
14975;SDS011;7584;60.468;25.126;2022-07-17T02:56:25;0.97;;;0.50;;
14975;SDS011;7584;60.468;25.126;2022-07-17T02:58:50;0.83;;;0.40;;
14975;SDS011;7584;60.468;25.126;2022-07-17T03:01:15;3.87;;;0.73;;
14975;SDS011;7584;60.468;25.126;2022-07-17T03:03:40;1.57;;;0.50;;
14975;SDS011;7584;60.468;25.126;2022-07-17T03:06:06;1.37;;;0.43;;
14975;SDS011;7584;60.468;25.126;2022-07-17T03:08:31;1.03;;;0.30;;
14975;SDS011;7584;60.468;25.126;2022-07-17T03:10:57;0.60;;;0.33;;
14975;SDS011;7584;60.468;25.126;2022-07-17T03:13:22;1.47;;;0.40;;
14975;SDS011;7584;60.468;25.126;2022-07-17T03:15:47;0.40;;;0.30;;
14975;SDS011;7584;60.468;25.126;2022-07-17T03:18:13;1.60;;;0.47;;
14975;SDS011;7584;60.468;25.126;2022-07-17T03:20:38;0.93;;;0.40;;
14975;SDS011;7584;60.468;25.126;2022-07-17T03:23:03;1.43;;;0.60;;
14975;SDS011;7584;60.468;25.126;2022-07-17T03:25:29;0.50;;;0.40;;
14975;SDS011;7584;60.468;25.126;2022-07-17T03:27:54;0.50;;;0.40;;
14975;SDS011;7584;60.468;25.126;2022-07-17T03:30:19;1.17;;;0.53;;
14975;SDS011;7584;60.468;25.126;2022-07-17T03:32:44;0.97;;;0.43;;
14975;SDS011;7584;60.468;25.126;2022-07-17T03:35:10;1.07;;;0.40;;
14975;SDS011;7584;60.468;25.126;2022-07-17T03:37:35;1.07;;;0.50;;
14975;SDS011;7584;60.468;25.126;2022-07-17T03:40:02;0.90;;;0.40;;
14975;SDS011;7584;60.468;25.126;2022-07-17T03:42:28;0.40;;;0.30;;
14975;SDS011;7584;60.468;25.126;2022-07-17T03:44:53;0.83;;;0.50;;
14975;SDS011;7584;60.468;25.126;2022-07-17T03:47:18;1.73;;;0.30;;
14975;SDS011;7584;60.468;25.126;2022-07-17T03:49:44;0.83;;;0.47;;
14975;SDS011;7584;60.468;25.126;2022-07-17T03:52:09;1.30;;;0.30;;
14975;SDS011;7584;60.468;25.126;2022-07-17T03:54:34;0.40;;;0.40;;
14975;SDS011;7584;60.468;25.126;2022-07-17T03:57:00;1.27;;;0.40;;
14975;SDS011;7584;60.468;25.126;2022-07-17T03:59:25;1.03;;;0.50;;
14975;SDS011;7584;60.468;25.126;2022-07-17T04:01:50;0.67;;;0.40;;
14975;SDS011;7584;60.468;25.126;2022-07-17T04:04:16;1.07;;;0.30;;
14975;SDS011;7584;60.468;25.126;2022-07-17T04:06:41;0.47;;;0.30;;
14975;SDS011;7584;60.468;25.126;2022-07-17T04:09:06;0.40;;;0.27;;
14975;SDS011;7584;60.468;25.126;2022-07-17T04:11:32;1.07;;;0.37;;
14975;SDS011;7584;60.468;25.126;2022-07-17T04:13:57;0.80;;;0.50;;
14975;SDS011;7584;60.468;25.126;2022-07-17T04:16:22;2.30;;;0.40;;
14975;SDS011;7584;60.468;25.126;2022-07-17T04:18:48;0.40;;;0.40;;
14975;SDS011;7584;60.468;25.126;2022-07-17T04:21:13;0.40;;;0.30;;
14975;SDS011;7584;60.468;25.126;2022-07-17T04:23:38;1.80;;;0.40;;
14975;SDS011;7584;60.468;25.126;2022-07-17T04:26:04;0.30;;;0.30;;
14975;SDS011;7584;60.468;25.126;2022-07-17T04:28:31;0.50;;;0.30;;
14975;SDS011;7584;60.468;25.126;2022-07-17T04:30:56;0.30;;;0.30;;
14975;SDS011;7584;60.468;25.126;2022-07-17T04:33:22;0.67;;;0.40;;
14975;SDS011;7584;60.468;25.126;2022-07-17T04:35:47;0.40;;;0.30;;
14975;SDS011;7584;60.468;25.126;2022-07-17T04:38:12;0.40;;;0.40;;
14975;SDS011;7584;60.468;25.126;2022-07-17T04:40:38;0.40;;;0.30;;
14975;SDS011;7584;60.468;25.126;2022-07-17T04:43:04;0.60;;;0.30;;
14975;SDS011;7584;60.468;25.126;2022-07-17T04:45:30;0.93;;;0.40;;
14975;SDS011;7584;60.468;25.126;2022-07-17T04:47:55;0.60;;;0.40;;
14975;SDS011;7584;60.468;25.126;2022-07-17T04:50:21;0.30;;;0.27;;
14975;SDS011;7584;60.468;25.126;2022-07-17T04:52:46;1.20;;;0.37;;
14975;SDS011;7584;60.468;25.126;2022-07-17T04:55:11;0.50;;;0.50;;
14975;SDS011;7584;60.468;25.126;2022-07-17T04:57:37;0.77;;;0.43;;
14975;SDS011;7584;60.468;25.126;2022-07-17T05:00:03;0.67;;;0.33;;
14975;SDS011;7584;60.468;25.126;2022-07-17T05:02:29;0.40;;;0.40;;
14975;SDS011;7584;60.468;25.126;2022-07-17T05:04:54;0.93;;;0.33;;
14975;SDS011;7584;60.468;25.126;2022-07-17T05:07:19;0.90;;;0.50;;
14975;SDS011;7584;60.468;25.126;2022-07-17T05:09:45;0.60;;;0.47;;
14975;SDS011;7584;60.468;25.126;2022-07-17T05:12:10;1.70;;;0.33;;
14975;SDS011;7584;60.468;25.126;2022-07-17T05:14:35;1.13;;;0.33;;
14975;SDS011;7584;60.468;25.126;2022-07-17T05:17:00;0.40;;;0.33;;
14975;SDS011;7584;60.468;25.126;2022-07-17T05:19:26;0.77;;;0.37;;
14975;SDS011;7584;60.468;25.126;2022-07-17T05:21:51;0.60;;;0.30;;
14975;SDS011;7584;60.468;25.126;2022-07-17T05:24:17;0.30;;;0.30;;
14975;SDS011;7584;60.468;25.126;2022-07-17T05:26:42;0.47;;;0.37;;
14975;SDS011;7584;60.468;25.126;2022-07-17T05:29:07;1.03;;;0.50;;
14975;SDS011;7584;60.468;25.126;2022-07-17T05:31:33;1.27;;;0.50;;
14975;SDS011;7584;60.468;25.126;2022-07-17T05:33:58;0.77;;;0.37;;
14975;SDS011;7584;60.468;25.126;2022-07-17T05:36:23;0.30;;;0.30;;
14975;SDS011;7584;60.468;25.126;2022-07-17T05:38:49;1.00;;;0.60;;
14975;SDS011;7584;60.468;25.126;2022-07-17T05:41:14;2.00;;;0.57;;
14975;SDS011;7584;60.468;25.126;2022-07-17T05:43:39;1.53;;;0.63;;
14975;SDS011;7584;60.468;25.126;2022-07-17T05:46:05;0.77;;;0.60;;
14975;SDS011;7584;60.468;25.126;2022-07-17T05:48:30;1.60;;;0.73;;
14975;SDS011;7584;60.468;25.126;2022-07-17T05:50:56;0.70;;;0.63;;
14975;SDS011;7584;60.468;25.126;2022-07-17T05:53:21;1.00;;;0.70;;
14975;SDS011;7584;60.468;25.126;2022-07-17T05:55:46;0.90;;;0.80;;
14975;SDS011;7584;60.468;25.126;2022-07-17T05:58:12;1.10;;;1.00;;
14975;SDS011;7584;60.468;25.126;2022-07-17T06:00:37;1.10;;;1.00;;
14975;SDS011;7584;60.468;25.126;2022-07-17T06:03:03;1.13;;;0.80;;
14975;SDS011;7584;60.468;25.126;2022-07-17T06:05:28;2.60;;;1.10;;
14975;SDS011;7584;60.468;25.126;2022-07-17T06:07:54;1.17;;;0.83;;
14975;SDS011;7584;60.468;25.126;2022-07-17T06:10:20;1.30;;;1.20;;
14975;SDS011;7584;60.468;25.126;2022-07-17T06:12:45;1.30;;;1.20;;
14975;SDS011;7584;60.468;25.126;2022-07-17T06:15:11;1.10;;;1.00;;
14975;SDS011;7584;60.468;25.126;2022-07-17T06:17:36;1.03;;;0.97;;
14975;SDS011;7584;60.468;25.126;2022-07-17T06:20:02;1.67;;;1.10;;
14975;SDS011;7584;60.468;25.126;2022-07-17T06:22:28;2.30;;;1.10;;
14975;SDS011;7584;60.468;25.126;2022-07-17T06:24:53;1.10;;;1.00;;
14975;SDS011;7584;60.468;25.126;2022-07-17T06:27:19;1.37;;;0.87;;
14975;SDS011;7584;60.468;25.126;2022-07-17T06:29:44;1.15;;;0.80;;
14975;SDS011;7584;60.468;25.126;2022-07-17T06:32:11;0.70;;;0.70;;
14975;SDS011;7584;60.468;25.126;2022-07-17T06:34:37;1.38;;;0.80;;
14975;SDS011;7584;60.468;25.126;2022-07-17T06:37:02;0.80;;;0.70;;
14975;SDS011;7584;60.468;25.126;2022-07-17T06:39:27;0.70;;;0.60;;
14975;SDS011;7584;60.468;25.126;2022-07-17T06:41:52;0.50;;;0.50;;
14975;SDS011;7584;60.468;25.126;2022-07-17T06:44:18;0.50;;;0.50;;
14975;SDS011;7584;60.468;25.126;2022-07-17T06:46:43;0.50;;;0.50;;
14975;SDS011;7584;60.468;25.126;2022-07-17T06:49:08;0.65;;;0.40;;
14975;SDS011;7584;60.468;25.126;2022-07-17T06:51:35;0.85;;;0.40;;
14975;SDS011;7584;60.468;25.126;2022-07-17T06:54:00;0.75;;;0.50;;
14975;SDS011;7584;60.468;25.126;2022-07-17T06:56:25;0.57;;;0.25;;
14975;SDS011;7584;60.468;25.126;2022-07-17T06:58:51;2.72;;;0.50;;
14975;SDS011;7584;60.468;25.126;2022-07-17T07:01:16;1.43;;;0.50;;
14975;SDS011;7584;60.468;25.126;2022-07-17T07:03:41;0.60;;;0.47;;
14975;SDS011;7584;60.468;25.126;2022-07-17T07:06:07;0.50;;;0.30;;
14975;SDS011;7584;60.468;25.126;2022-07-17T07:08:33;1.27;;;0.53;;
14975;SDS011;7584;60.468;25.126;2022-07-17T07:11:00;1.83;;;0.40;;
14975;SDS011;7584;60.468;25.126;2022-07-17T07:13:26;3.50;;;0.43;;
14975;SDS011;7584;60.468;25.126;2022-07-17T07:15:51;2.20;;;0.70;;
14975;SDS011;7584;60.468;25.126;2022-07-17T07:18:16;1.20;;;0.50;;
14975;SDS011;7584;60.468;25.126;2022-07-17T07:20:42;0.90;;;0.50;;
14975;SDS011;7584;60.468;25.126;2022-07-17T07:23:07;0.70;;;0.60;;
14975;SDS011;7584;60.468;25.126;2022-07-17T07:25:33;1.93;;;0.53;;
14975;SDS011;7584;60.468;25.126;2022-07-17T07:27:58;1.67;;;0.70;;
14975;SDS011;7584;60.468;25.126;2022-07-17T07:30:24;0.60;;;0.60;;
14975;SDS011;7584;60.468;25.126;2022-07-17T07:32:49;0.87;;;0.50;;
14975;SDS011;7584;60.468;25.126;2022-07-17T07:35:15;3.23;;;0.70;;
14975;SDS011;7584;60.468;25.126;2022-07-17T07:37:40;1.07;;;0.50;;
14975;SDS011;7584;60.468;25.126;2022-07-17T07:40:06;1.20;;;0.60;;
14975;SDS011;7584;60.468;25.126;2022-07-17T07:42:32;0.40;;;0.30;;
14975;SDS011;7584;60.468;25.126;2022-07-17T07:44:57;1.80;;;0.50;;
14975;SDS011;7584;60.468;25.126;2022-07-17T07:47:22;0.63;;;0.40;;
14975;SDS011;7584;60.468;25.126;2022-07-17T07:49:48;1.13;;;0.40;;
14975;SDS011;7584;60.468;25.126;2022-07-17T07:52:13;2.10;;;0.40;;
14975;SDS011;7584;60.468;25.126;2022-07-17T07:54:38;1.27;;;0.47;;
14975;SDS011;7584;60.468;25.126;2022-07-17T07:57:04;1.17;;;0.40;;
14975;SDS011;7584;60.468;25.126;2022-07-17T07:59:29;0.63;;;0.25;;
14975;SDS011;7584;60.468;25.126;2022-07-17T08:01:57;0.45;;;0.40;;
14975;SDS011;7584;60.468;25.126;2022-07-17T08:04:23;0.80;;;0.35;;
14975;SDS011;7584;60.468;25.126;2022-07-17T08:06:48;1.95;;;0.30;;
14975;SDS011;7584;60.468;25.126;2022-07-17T08:09:13;0.88;;;0.20;;
14975;SDS011;7584;60.468;25.126;2022-07-17T08:11:38;2.17;;;0.30;;
14975;SDS011;7584;60.468;25.126;2022-07-17T08:14:04;0.35;;;0.30;;
14975;SDS011;7584;60.468;25.126;2022-07-17T08:16:29;0.50;;;0.40;;
14975;SDS011;7584;60.468;25.126;2022-07-17T08:18:54;1.60;;;0.35;;
14975;SDS011;7584;60.468;25.126;2022-07-17T08:21:20;1.00;;;0.30;;
14975;SDS011;7584;60.468;25.126;2022-07-17T08:23:47;0.68;;;0.40;;
14975;SDS011;7584;60.468;25.126;2022-07-17T08:26:13;1.48;;;0.47;;
14975;SDS011;7584;60.468;25.126;2022-07-17T08:28:39;1.48;;;0.50;;
14975;SDS011;7584;60.468;25.126;2022-07-17T08:31:04;1.67;;;0.35;;
14975;SDS011;7584;60.468;25.126;2022-07-17T08:33:30;1.08;;;0.43;;
14975;SDS011;7584;60.468;25.126;2022-07-17T08:35:55;1.95;;;0.35;;
14975;SDS011;7584;60.468;25.126;2022-07-17T08:38:20;0.85;;;0.30;;
14975;SDS011;7584;60.468;25.126;2022-07-17T08:40:45;1.13;;;0.35;;
14975;SDS011;7584;60.468;25.126;2022-07-17T08:43:14;1.55;;;0.35;;
14975;SDS011;7584;60.468;25.126;2022-07-17T08:45:39;0.20;;;0.20;;
14975;SDS011;7584;60.468;25.126;2022-07-17T08:48:05;0.50;;;0.20;;
14975;SDS011;7584;60.468;25.126;2022-07-17T08:50:33;0.30;;;0.30;;
14975;SDS011;7584;60.468;25.126;2022-07-17T08:52:59;1.83;;;0.70;;
14975;SDS011;7584;60.468;25.126;2022-07-17T08:55:24;1.25;;;0.35;;
14975;SDS011;7584;60.468;25.126;2022-07-17T08:57:50;1.00;;;0.40;;
14975;SDS011;7584;60.468;25.126;2022-07-17T09:00:17;1.10;;;0.30;;
14975;SDS011;7584;60.468;25.126;2022-07-17T09:05:20;4.07;;;0.30;;
14975;SDS011;7584;60.468;25.126;2022-07-17T09:07:45;2.90;;;0.40;;
14975;SDS011;7584;60.468;25.126;2022-07-17T09:10:12;0.20;;;0.20;;
14975;SDS011;7584;60.468;25.126;2022-07-17T09:12:37;1.08;;;0.20;;
14975;SDS011;7584;60.468;25.126;2022-07-17T09:15:13;0.77;;;0.30;;
14975;SDS011;7584;60.468;25.126;2022-07-17T09:17:46;0.82;;;0.30;;
14975;SDS011;7584;60.468;25.126;2022-07-17T09:20:12;2.85;;;0.40;;
14975;SDS011;7584;60.468;25.126;2022-07-17T09:22:38;3.20;;;0.40;;
14975;SDS011;7584;60.468;25.126;2022-07-17T09:25:03;0.52;;;0.35;;
14975;SDS011;7584;60.468;25.126;2022-07-17T09:27:30;0.50;;;0.30;;
14975;SDS011;7584;60.468;25.126;2022-07-17T09:29:58;0.43;;;0.22;;
14975;SDS011;7584;60.468;25.126;2022-07-17T09:32:24;1.27;;;0.30;;
14975;SDS011;7584;60.468;25.126;2022-07-17T09:34:51;1.30;;;0.30;;
14975;SDS011;7584;60.468;25.126;2022-07-17T09:37:17;2.33;;;0.20;;
14975;SDS011;7584;60.468;25.126;2022-07-17T09:39:42;0.38;;;0.30;;
14975;SDS011;7584;60.468;25.126;2022-07-17T09:42:09;0.68;;;0.20;;
14975;SDS011;7584;60.468;25.126;2022-07-17T09:44:35;0.75;;;0.38;;
14975;SDS011;7584;60.468;25.126;2022-07-17T09:47:01;0.65;;;0.30;;
14975;SDS011;7584;60.468;25.126;2022-07-17T09:49:26;1.65;;;0.30;;
14975;SDS011;7584;60.468;25.126;2022-07-17T09:51:52;1.75;;;0.22;;
14975;SDS011;7584;60.468;25.126;2022-07-17T09:54:19;0.70;;;0.38;;
14975;SDS011;7584;60.468;25.126;2022-07-17T09:56:44;0.45;;;0.20;;
14975;SDS011;7584;60.468;25.126;2022-07-17T09:59:12;0.50;;;0.20;;
14975;SDS011;7584;60.468;25.126;2022-07-17T10:01:38;0.40;;;0.20;;
14975;SDS011;7584;60.468;25.126;2022-07-17T10:04:04;0.28;;;0.25;;
14975;SDS011;7584;60.468;25.126;2022-07-17T10:06:29;0.85;;;0.20;;
14975;SDS011;7584;60.468;25.126;2022-07-17T10:08:54;0.40;;;0.20;;
14975;SDS011;7584;60.468;25.126;2022-07-17T10:11:21;0.73;;;0.20;;
14975;SDS011;7584;60.468;25.126;2022-07-17T10:13:47;0.88;;;0.20;;
14975;SDS011;7584;60.468;25.126;2022-07-17T10:16:13;0.63;;;0.20;;
14975;SDS011;7584;60.468;25.126;2022-07-17T10:18:42;1.92;;;0.32;;
14975;SDS011;7584;60.468;25.126;2022-07-17T10:21:12;3.83;;;0.40;;
14975;SDS011;7584;60.468;25.126;2022-07-17T10:23:39;2.33;;;0.40;;
14975;SDS011;7584;60.468;25.126;2022-07-17T10:26:04;2.08;;;0.40;;
14975;SDS011;7584;60.468;25.126;2022-07-17T10:28:40;0.65;;;0.22;;
14975;SDS011;7584;60.468;25.126;2022-07-17T10:31:05;1.45;;;0.47;;
14975;SDS011;7584;60.468;25.126;2022-07-17T10:33:30;0.85;;;0.40;;
14975;SDS011;7584;60.468;25.126;2022-07-17T10:35:56;1.98;;;0.25;;
14975;SDS011;7584;60.468;25.126;2022-07-17T10:38:24;1.85;;;0.20;;
14975;SDS011;7584;60.468;25.126;2022-07-17T10:40:58;0.40;;;0.20;;
14975;SDS011;7584;60.468;25.126;2022-07-17T10:43:24;0.50;;;0.20;;
14975;SDS011;7584;60.468;25.126;2022-07-17T10:45:49;1.13;;;0.28;;
14975;SDS011;7584;60.468;25.126;2022-07-17T10:48:18;0.73;;;0.20;;
14975;SDS011;7584;60.468;25.126;2022-07-17T10:50:48;1.45;;;0.20;;
14975;SDS011;7584;60.468;25.126;2022-07-17T10:53:21;0.20;;;0.20;;
14975;SDS011;7584;60.468;25.126;2022-07-17T10:56:01;0.50;;;0.20;;
14975;SDS011;7584;60.468;25.126;2022-07-17T10:58:40;2.30;;;0.40;;
14975;SDS011;7584;60.468;25.126;2022-07-17T11:03:31;0.20;;;0.20;;
14975;SDS011;7584;60.468;25.126;2022-07-17T11:11:23;0.90;;;0.20;;
14975;SDS011;7584;60.468;25.126;2022-07-17T11:13:49;0.38;;;0.20;;
14975;SDS011;7584;60.468;25.126;2022-07-17T11:16:27;0.30;;;0.20;;
14975;SDS011;7584;60.468;25.126;2022-07-17T11:18:53;0.77;;;0.30;;
14975;SDS011;7584;60.468;25.126;2022-07-17T11:21:19;0.63;;;0.25;;
14975;SDS011;7584;60.468;25.126;2022-07-17T11:23:54;0.40;;;0.30;;
14975;SDS011;7584;60.468;25.126;2022-07-17T11:26:20;1.52;;;0.25;;
14975;SDS011;7584;60.468;25.126;2022-07-17T11:28:45;0.77;;;0.30;;
14975;SDS011;7584;60.468;25.126;2022-07-17T11:31:24;1.92;;;0.60;;
14975;SDS011;7584;60.468;25.126;2022-07-17T11:36:29;3.65;;;0.77;;
14975;SDS011;7584;60.468;25.126;2022-07-17T11:38:57;2.17;;;0.70;;
14975;SDS011;7584;60.468;25.126;2022-07-17T11:41:30;3.53;;;0.60;;
14975;SDS011;7584;60.468;25.126;2022-07-17T11:43:56;0.98;;;0.20;;
14975;SDS011;7584;60.468;25.126;2022-07-17T11:46:22;1.43;;;0.50;;
14975;SDS011;7584;60.468;25.126;2022-07-17T11:48:47;1.13;;;0.33;;
14975;SDS011;7584;60.468;25.126;2022-07-17T11:51:12;1.93;;;0.50;;
14975;SDS011;7584;60.468;25.126;2022-07-17T11:53:38;2.30;;;0.50;;
14975;SDS011;7584;60.468;25.126;2022-07-17T11:56:04;2.97;;;0.40;;
14975;SDS011;7584;60.468;25.126;2022-07-17T11:58:40;1.63;;;0.50;;
14975;SDS011;7584;60.468;25.126;2022-07-17T12:01:06;1.87;;;0.63;;
14975;SDS011;7584;60.468;25.126;2022-07-17T12:03:31;1.27;;;0.40;;
14975;SDS011;7584;60.468;25.126;2022-07-17T12:05:56;0.80;;;0.70;;
14975;SDS011;7584;60.468;25.126;2022-07-17T12:08:22;1.07;;;0.27;;
14975;SDS011;7584;60.468;25.126;2022-07-17T12:10:58;1.70;;;0.30;;
14975;SDS011;7584;60.468;25.126;2022-07-17T12:13:24;1.07;;;0.27;;
14975;SDS011;7584;60.468;25.126;2022-07-17T12:15:57;0.97;;;0.20;;
14975;SDS011;7584;60.468;25.126;2022-07-17T12:20:49;0.25;;;0.20;;
14975;SDS011;7584;60.468;25.126;2022-07-17T12:28:30;1.13;;;0.30;;
14975;SDS011;7584;60.468;25.126;2022-07-17T12:30:55;0.90;;;0.30;;
14975;SDS011;7584;60.468;25.126;2022-07-17T12:33:21;1.30;;;0.50;;
14975;SDS011;7584;60.468;25.126;2022-07-17T12:35:46;1.38;;;0.32;;
14975;SDS011;7584;60.468;25.126;2022-07-17T12:38:11;2.55;;;0.35;;
14975;SDS011;7584;60.468;25.126;2022-07-17T12:40:37;1.45;;;0.20;;
14975;SDS011;7584;60.468;25.126;2022-07-17T12:43:02;1.02;;;0.30;;
14975;SDS011;7584;60.468;25.126;2022-07-17T12:45:27;0.85;;;0.22;;
14975;SDS011;7584;60.468;25.126;2022-07-17T12:47:52;0.90;;;0.30;;
14975;SDS011;7584;60.468;25.126;2022-07-17T12:50:18;1.42;;;0.30;;
14975;SDS011;7584;60.468;25.126;2022-07-17T12:52:44;0.75;;;0.20;;
14975;SDS011;7584;60.468;25.126;2022-07-17T12:55:09;0.25;;;0.20;;
14975;SDS011;7584;60.468;25.126;2022-07-17T12:57:36;0.30;;;0.20;;
14975;SDS011;7584;60.468;25.126;2022-07-17T13:00:02;0.77;;;0.20;;
14975;SDS011;7584;60.468;25.126;2022-07-17T13:02:27;1.33;;;0.45;;
14975;SDS011;7584;60.468;25.126;2022-07-17T13:04:53;1.38;;;0.30;;
14975;SDS011;7584;60.468;25.126;2022-07-17T13:07:18;1.00;;;0.30;;
14975;SDS011;7584;60.468;25.126;2022-07-17T13:09:43;0.90;;;0.10;;
14975;SDS011;7584;60.468;25.126;2022-07-17T13:12:08;0.38;;;0.20;;
14975;SDS011;7584;60.468;25.126;2022-07-17T13:14:34;2.45;;;0.30;;
14975;SDS011;7584;60.468;25.126;2022-07-17T13:16:59;1.95;;;0.40;;
14975;SDS011;7584;60.468;25.126;2022-07-17T13:19:25;0.40;;;0.10;;
14975;SDS011;7584;60.468;25.126;2022-07-17T13:21:51;0.77;;;0.20;;
14975;SDS011;7584;60.468;25.126;2022-07-17T13:24:16;0.63;;;0.22;;
14975;SDS011;7584;60.468;25.126;2022-07-17T13:26:41;0.63;;;0.20;;
14975;SDS011;7584;60.468;25.126;2022-07-17T13:29:07;0.77;;;0.15;;
14975;SDS011;7584;60.468;25.126;2022-07-17T13:31:32;0.50;;;0.10;;
14975;SDS011;7584;60.468;25.126;2022-07-17T13:33:57;0.55;;;0.10;;
14975;SDS011;7584;60.468;25.126;2022-07-17T13:36:23;1.85;;;0.13;;
14975;SDS011;7584;60.468;25.126;2022-07-17T13:38:48;0.10;;;0.10;;
14975;SDS011;7584;60.468;25.126;2022-07-17T13:41:13;0.17;;;0.10;;
14975;SDS011;7584;60.468;25.126;2022-07-17T13:43:39;1.65;;;0.20;;
14975;SDS011;7584;60.468;25.126;2022-07-17T13:46:04;0.40;;;0.20;;
14975;SDS011;7584;60.468;25.126;2022-07-17T13:48:30;0.52;;;0.20;;
14975;SDS011;7584;60.468;25.126;2022-07-17T13:50:55;1.02;;;0.22;;
14975;SDS011;7584;60.468;25.126;2022-07-17T13:53:20;0.43;;;0.20;;
14975;SDS011;7584;60.468;25.126;2022-07-17T13:55:46;0.17;;;0.10;;
14975;SDS011;7584;60.468;25.126;2022-07-17T13:58:12;1.38;;;0.15;;
14975;SDS011;7584;60.468;25.126;2022-07-17T14:00:37;0.20;;;0.17;;
14975;SDS011;7584;60.468;25.126;2022-07-17T14:03:03;0.80;;;0.20;;
14975;SDS011;7584;60.468;25.126;2022-07-17T14:05:28;2.28;;;0.40;;
14975;SDS011;7584;60.468;25.126;2022-07-17T14:07:53;0.77;;;0.30;;
14975;SDS011;7584;60.468;25.126;2022-07-17T14:10:19;1.13;;;0.25;;
14975;SDS011;7584;60.468;25.126;2022-07-17T14:12:44;1.75;;;0.10;;
14975;SDS011;7584;60.468;25.126;2022-07-17T14:15:09;0.80;;;0.10;;
14975;SDS011;7584;60.468;25.126;2022-07-17T14:17:35;2.35;;;0.20;;
14975;SDS011;7584;60.468;25.126;2022-07-17T14:20:01;0.73;;;0.20;;
14975;SDS011;7584;60.468;25.126;2022-07-17T14:22:26;2.35;;;0.30;;
14975;SDS011;7584;60.468;25.126;2022-07-17T14:24:51;0.17;;;0.17;;
14975;SDS011;7584;60.468;25.126;2022-07-17T14:27:17;0.25;;;0.15;;
14975;SDS011;7584;60.468;25.126;2022-07-17T14:29:43;0.10;;;0.10;;
14975;SDS011;7584;60.468;25.126;2022-07-17T14:32:08;2.42;;;0.22;;
14975;SDS011;7584;60.468;25.126;2022-07-17T14:34:33;0.65;;;0.10;;
14975;SDS011;7584;60.468;25.126;2022-07-17T14:36:58;0.55;;;0.20;;
14975;SDS011;7584;60.468;25.126;2022-07-17T14:39:24;1.48;;;0.20;;
14975;SDS011;7584;60.468;25.126;2022-07-17T14:41:51;0.30;;;0.20;;
14975;SDS011;7584;60.468;25.126;2022-07-17T14:44:16;1.08;;;0.28;;
14975;SDS011;7584;60.468;25.126;2022-07-17T14:46:41;2.17;;;0.30;;
14975;SDS011;7584;60.468;25.126;2022-07-17T14:49:07;0.20;;;0.20;;
14975;SDS011;7584;60.468;25.126;2022-07-17T14:51:32;0.50;;;0.20;;
14975;SDS011;7584;60.468;25.126;2022-07-17T14:53:57;0.93;;;0.20;;
14975;SDS011;7584;60.468;25.126;2022-07-17T14:56:23;1.10;;;0.25;;
14975;SDS011;7584;60.468;25.126;2022-07-17T14:58:48;1.45;;;0.20;;
14975;SDS011;7584;60.468;25.126;2022-07-17T15:01:14;0.55;;;0.20;;